Time;durP1;ratioP1;P1;durP2;ratioP2;P2;SDS_P1;SDS_P2;PMS_P1;PMS_P2;Temp;Humidity;BMP_temperature;BMP_pressure;BME280_temperature;BME280_humidity;BME280_pressure;Samples;Min_cycle;Max_cycle;Signal;HPM_P1;HPM_P2
2022/03/10 00:00:08;;;;;;;3.47;2.20;;;22.60;28.40;;;;;;4954922;29;20876;-73
2022/03/10 00:02:33;;;;;;;3.65;2.00;;;22.60;28.20;;;;;;4954898;29;20398;-74
2022/03/10 00:04:59;;;;;;;3.00;1.90;;;22.60;28.00;;;;;;4954928;29;20398;-78
2022/03/10 00:07:25;;;;;;;3.87;2.03;;;22.70;28.40;;;;;;4954670;29;20398;-78
2022/03/10 00:09:50;;;;;;;3.13;2.20;;;22.60;27.80;;;;;;4954985;29;20412;-74
2022/03/10 00:12:16;;;;;;;3.13;1.65;;;22.70;27.90;;;;;;4955086;29;20801;-77
2022/03/10 00:14:42;;;;;;;3.42;1.80;;;22.70;27.80;;;;;;4954899;29;20490;-77
2022/03/10 00:17:08;;;;;;;3.85;2.00;;;22.70;27.90;;;;;;4954768;29;20883;-77
2022/03/10 00:19:34;;;;;;;3.30;1.80;;;22.70;27.80;;;;;;4954225;29;20552;-79
2022/03/10 00:21:59;;;;;;;2.63;1.80;;;22.70;27.90;;;;;;4937493;29;20433;-78
2022/03/10 00:24:25;;;;;;;2.53;1.80;;;22.70;27.90;;;;;;4954688;29;20394;-78
2022/03/10 00:26:51;;;;;;;2.80;1.80;;;22.70;27.90;;;;;;4937364;29;20406;-74
2022/03/10 00:29:16;;;;;;;3.25;1.70;;;22.70;27.90;;;;;;4937386;29;20398;-77
2022/03/10 00:31:42;;;;;;;2.43;1.63;;;22.60;28.00;;;;;;4954060;29;20422;-78
2022/03/10 00:34:08;;;;;;;2.70;1.80;;;22.60;27.80;;;;;;4954592;29;20448;-78
2022/03/10 00:36:34;;;;;;;3.75;2.05;;;22.60;28.00;;;;;;4954463;29;20895;-76
2022/03/10 00:39:00;;;;;;;2.88;1.63;;;22.60;27.60;;;;;;4954443;29;20882;-78
2022/03/10 00:41:26;;;;;;;2.97;1.80;;;22.60;27.70;;;;;;4954225;29;20454;-78
2022/03/10 00:43:52;;;;;;;2.55;1.70;;;22.60;27.50;;;;;;4954095;29;20734;-78
2022/03/10 00:46:17;;;;;;;2.47;1.80;;;22.60;27.80;;;;;;4937115;29;20966;-77
2022/03/10 00:48:43;;;;;;;3.47;1.75;;;22.60;27.50;;;;;;4954113;29;20393;-77
2022/03/10 00:51:09;;;;;;;2.30;1.57;;;22.60;27.60;;;;;;4954031;29;20410;-77
2022/03/10 00:53:35;;;;;;;2.97;1.80;;;22.60;27.50;;;;;;4953667;29;20406;-77
2022/03/10 00:56:01;;;;;;;3.22;1.75;;;22.70;27.50;;;;;;4953389;28;20393;-77
2022/03/10 00:58:27;;;;;;;2.50;1.60;;;22.60;27.50;;;;;;4954106;29;20430;-77
2022/03/10 01:00:53;;;;;;;2.60;1.70;;;22.60;27.40;;;;;;4954066;29;20613;-76
2022/03/10 01:03:19;;;;;;;2.42;1.63;;;22.60;27.30;;;;;;4954046;29;20499;-75
2022/03/10 01:05:45;;;;;;;2.40;1.48;;;22.60;27.70;;;;;;4936221;29;20404;-77
2022/03/10 01:08:11;;;;;;;2.10;1.63;;;22.60;27.30;;;;;;4953970;29;20480;-77
2022/03/10 01:10:37;;;;;;;2.30;1.45;;;22.60;27.60;;;;;;4953855;29;20797;-76
2022/03/10 01:13:02;;;;;;;3.20;1.65;;;22.50;27.30;;;;;;4953834;29;20472;-77
2022/03/10 01:15:29;;;;;;;2.40;1.70;;;22.50;27.60;;;;;;4953560;29;20394;-77
2022/03/10 01:17:56;;;;;;;2.10;1.42;;;22.50;27.80;;;;;;4953257;29;20422;-76
2022/03/10 01:20:23;;;;;;;2.72;1.33;;;22.50;27.80;;;;;;4953867;29;20444;-74
2022/03/10 01:22:50;;;;;;;2.33;1.38;;;22.50;27.50;;;;;;4936397;29;20412;-75
2022/03/10 01:25:17;;;;;;;2.50;1.65;;;22.50;27.90;;;;;;4953735;29;20397;-76
2022/03/10 01:27:42;;;;;;;2.40;1.53;;;22.50;27.80;;;;;;4953192;29;20558;-76
2022/03/10 01:30:09;;;;;;;2.35;1.55;;;22.40;27.70;;;;;;4953523;29;20857;-76
2022/03/10 01:32:36;;;;;;;2.03;1.48;;;22.40;27.80;;;;;;4936242;29;20432;-77
2022/03/10 01:35:05;;;;;;;2.10;1.50;;;22.40;27.80;;;;;;4953529;29;20394;-77
2022/03/10 01:37:36;;;;;;;2.47;1.60;;;22.40;27.80;;;;;;4953317;29;20402;-74
2022/03/10 01:40:03;;;;;;;2.10;1.55;;;22.40;27.90;;;;;;4953539;29;20386;-78
2022/03/10 01:42:29;;;;;;;2.40;1.50;;;22.50;27.80;;;;;;4953479;29;20951;-77
2022/03/10 01:44:55;;;;;;;2.33;1.60;;;22.50;27.80;;;;;;4936428;29;20489;-77
2022/03/10 01:47:21;;;;;;;2.08;1.58;;;22.50;27.60;;;;;;4953527;29;20398;-78
2022/03/10 01:49:47;;;;;;;1.90;1.40;;;22.50;27.60;;;;;;4952958;29;21013;-74
2022/03/10 01:52:12;;;;;;;1.95;1.40;;;22.50;27.70;;;;;;4953307;29;20465;-77
2022/03/10 01:54:40;;;;;;;2.20;1.40;;;22.40;27.60;;;;;;4953531;29;20398;-78
2022/03/10 01:57:06;;;;;;;1.67;1.35;;;22.50;27.30;;;;;;4953231;29;20444;-77
2022/03/10 01:59:32;;;;;;;1.80;1.40;;;22.40;27.60;;;;;;4953139;29;20422;-77
2022/03/10 02:01:58;;;;;;;2.15;1.40;;;22.40;27.50;;;;;;4953004;29;20394;-75
2022/03/10 02:04:24;;;;;;;1.90;1.30;;;22.30;27.60;;;;;;4953331;29;20424;-79
2022/03/10 02:06:51;;;;;;;1.70;1.33;;;22.40;27.60;;;;;;4955034;28;20417;-78
2022/03/10 02:12:01;;;;;;;2.10;1.20;;;22.30;27.50;;;;;;4956982;29;20464;-77
2022/03/10 02:17:20;;;;;;;2.15;1.20;;;22.30;27.50;;;;;;4957007;29;20397;-78
2022/03/10 02:19:56;;;;;;;2.10;1.40;;;22.30;27.50;;;;;;4956339;29;20504;-77
2022/03/10 02:22:23;;;;;;;2.10;1.52;;;22.30;27.40;;;;;;4957006;29;20477;-78
2022/03/10 02:24:50;;;;;;;1.80;1.30;;;22.30;27.40;;;;;;4956769;29;20394;-78
2022/03/10 02:27:19;;;;;;;1.80;1.10;;;22.30;27.40;;;;;;4956799;29;20402;-73
2022/03/10 02:29:46;;;;;;;1.53;1.20;;;22.30;27.40;;;;;;4956328;29;20394;-78
2022/03/10 02:32:13;;;;;;;2.00;1.20;;;22.30;27.40;;;;;;4956794;29;20426;-79
2022/03/10 02:34:40;;;;;;;2.03;1.40;;;22.30;27.30;;;;;;4956752;29;20433;-77
2022/03/10 02:37:06;;;;;;;1.80;1.40;;;22.30;27.30;;;;;;4956564;29;20402;-78
2022/03/10 02:39:32;;;;;;;1.90;1.10;;;22.30;27.30;;;;;;4956565;29;20398;-78
2022/03/10 02:41:58;;;;;;;1.85;1.25;;;22.20;27.30;;;;;;4956366;29;20846;-77
2022/03/10 02:44:24;;;;;;;1.90;1.20;;;22.20;27.30;;;;;;4956512;29;20529;-78
2022/03/10 02:46:51;;;;;;;2.00;1.20;;;22.20;27.40;;;;;;4956383;29;20410;-79
2022/03/10 02:49:17;;;;;;;1.80;1.20;;;22.20;27.40;;;;;;4939395;29;20876;-78
2022/03/10 02:51:43;;;;;;;1.50;1.08;;;22.20;27.30;;;;;;4955861;29;20432;-74
2022/03/10 02:54:09;;;;;;;1.83;1.23;;;22.20;27.30;;;;;;4939159;29;20398;-75
2022/03/10 02:56:37;;;;;;;1.70;1.20;;;22.20;27.30;;;;;;4955704;29;20458;-77
2022/03/10 02:59:03;;;;;;;1.60;1.20;;;22.10;27.30;;;;;;4938986;29;20885;-77
2022/03/10 03:01:29;;;;;;;1.80;1.30;;;22.10;27.30;;;;;;4956019;29;20398;-78
2022/03/10 03:03:55;;;;;;;1.90;1.27;;;22.10;27.20;;;;;;4955561;29;20469;-77
2022/03/10 03:06:20;;;;;;;1.42;1.08;;;22.20;27.20;;;;;;4938838;29;20406;-76
2022/03/10 03:08:46;;;;;;;1.90;1.08;;;22.20;27.20;;;;;;4939347;29;20422;-77
2022/03/10 03:11:12;;;;;;;1.60;1.27;;;22.20;27.20;;;;;;4938915;29;20441;-77
2022/03/10 03:13:38;;;;;;;1.88;1.10;;;22.20;27.20;;;;;;4955842;29;20441;-77
2022/03/10 03:16:04;;;;;;;1.50;1.10;;;22.20;27.10;;;;;;4955719;29;20413;-77
2022/03/10 03:18:30;;;;;;;1.50;0.90;;;22.20;27.10;;;;;;4937836;29;20409;-77
2022/03/10 03:20:55;;;;;;;1.43;1.00;;;22.20;27.10;;;;;;4955576;28;20448;-76
2022/03/10 03:23:23;;;;;;;1.55;1.02;;;22.20;27.10;;;;;;4938560;29;20438;-79
2022/03/10 03:25:50;;;;;;;1.40;1.00;;;22.10;27.10;;;;;;4937967;29;20427;-78
2022/03/10 03:28:16;;;;;;;1.83;1.00;;;22.10;27.20;;;;;;4955778;29;20426;-76
2022/03/10 03:30:42;;;;;;;1.77;1.30;;;22.10;27.20;;;;;;4955599;29;20402;-76
2022/03/10 03:33:07;;;;;;;1.80;1.20;;;22.10;27.10;;;;;;4955564;29;20417;-77
2022/03/10 03:35:33;;;;;;;1.73;1.10;;;22.00;27.10;;;;;;4955440;29;20448;-78
2022/03/10 03:37:59;;;;;;;2.08;1.20;;;22.00;27.10;;;;;;4955396;29;20401;-78
2022/03/10 03:40:25;;;;;;;1.60;1.00;;;22.00;27.10;;;;;;4955516;29;20821;-78
2022/03/10 03:42:50;;;;;;;1.90;1.20;;;22.00;27.10;;;;;;4955370;29;20903;-78
2022/03/10 03:45:16;;;;;;;1.93;1.13;;;22.00;27.10;;;;;;4955367;29;20477;-78
2022/03/10 03:47:42;;;;;;;1.70;1.05;;;22.00;27.10;;;;;;4954906;29;20402;-75
2022/03/10 03:50:08;;;;;;;1.47;1.20;;;22.00;27.10;;;;;;4938094;29;20412;-77
2022/03/10 03:52:34;;;;;;;1.60;1.20;;;22.00;27.10;;;;;;4955213;29;20927;-78
2022/03/10 03:55:00;;;;;;;1.60;1.17;;;22.00;27.10;;;;;;4955187;29;20421;-77
2022/03/10 03:57:25;;;;;;;1.50;1.10;;;22.00;27.10;;;;;;4955106;29;20414;-77
2022/03/10 03:59:51;;;;;;;1.67;1.27;;;22.00;27.10;;;;;;4954693;29;20401;-76
2022/03/10 04:02:16;;;;;;;1.40;1.10;;;22.00;27.00;;;;;;4955902;29;20421;-73
2022/03/10 04:04:42;;;;;;;2.00;1.27;;;21.90;27.00;;;;;;4955055;29;20398;-77
2022/03/10 04:07:08;;;;;;;3.17;1.50;;;22.00;27.20;;;;;;4954974;29;20836;-79
2022/03/10 04:09:34;;;;;;;4.22;1.50;;;22.10;27.10;;;;;;4937857;29;20402;-76
2022/03/10 04:12:01;;;;;;;3.03;1.90;;;22.10;27.20;;;;;;4954526;29;20828;-78
2022/03/10 04:14:26;;;;;;;3.72;2.17;;;22.20;28.00;;;;;;4954722;29;20884;-77
2022/03/10 04:16:52;;;;;;;3.05;2.10;;;22.30;28.60;;;;;;4954885;29;20397;-79
2022/03/10 04:19:18;;;;;;;3.93;1.90;;;22.30;28.10;;;;;;4937154;29;20418;-79
2022/03/10 04:21:43;;;;;;;4.78;2.00;;;22.30;28.10;;;;;;4937004;29;20456;-79
2022/03/10 04:24:09;;;;;;;6.82;2.00;;;22.30;28.80;;;;;;4937500;29;20481;-77
2022/03/10 04:26:35;;;;;;;6.10;2.10;;;22.40;29.10;;;;;;4954701;29;20449;-78
2022/03/10 04:29:00;;;;;;;5.90;1.83;;;22.30;29.20;;;;;;4937225;28;20433;-80
2022/03/10 04:31:26;;;;;;;4.72;2.10;;;22.40;29.00;;;;;;4936539;29;20417;-75
2022/03/10 04:33:52;;;;;;;5.43;1.80;;;22.40;29.00;;;;;;4954291;29;20437;-79
2022/03/10 04:36:18;;;;;;;7.13;2.17;;;22.40;28.50;;;;;;4937369;29;20806;-79
2022/03/10 04:38:44;;;;;;;6.50;2.00;;;22.40;29.00;;;;;;4954227;29;20438;-80
2022/03/10 04:41:10;;;;;;;6.18;1.83;;;22.30;29.20;;;;;;4937571;29;20381;-75
2022/03/10 04:43:36;;;;;;;6.25;1.70;;;22.30;28.80;;;;;;4953911;29;20896;-77
2022/03/10 04:46:03;;;;;;;6.45;2.08;;;22.40;28.90;;;;;;4953925;29;20533;-75
2022/03/10 04:48:29;;;;;;;5.43;1.80;;;22.30;28.40;;;;;;4954395;29;20444;-78
2022/03/10 04:50:55;;;;;;;3.87;1.70;;;22.30;28.70;;;;;;4953963;29;20406;-78
2022/03/10 04:53:21;;;;;;;5.15;1.70;;;22.30;28.40;;;;;;4954055;29;20415;-77
2022/03/10 04:55:47;;;;;;;4.00;1.60;;;22.40;28.10;;;;;;4953373;29;20397;-76
2022/03/10 04:58:13;;;;;;;3.45;1.60;;;22.40;27.80;;;;;;4953904;29;21260;-78
2022/03/10 05:00:38;;;;;;;3.30;1.70;;;22.40;27.70;;;;;;4953875;29;20405;-77
2022/03/10 05:03:04;;;;;;;2.10;1.58;;;22.40;27.60;;;;;;4953872;29;20406;-75
2022/03/10 05:05:30;;;;;;;6.43;2.30;;;22.40;27.50;;;;;;4953691;29;20401;-76
2022/03/10 05:07:55;;;;;;;4.90;1.70;;;22.30;27.60;;;;;;4953005;29;20404;-77
2022/03/10 05:10:21;;;;;;;4.13;1.53;;;22.30;28.40;;;;;;4953118;29;20402;-78
2022/03/10 05:12:48;;;;;;;3.60;1.73;;;22.20;28.40;;;;;;4953191;29;20425;-76
2022/03/10 05:15:17;;;;;;;2.80;1.63;;;22.20;28.30;;;;;;4938927;29;20402;-75
2022/03/10 05:17:43;;;;;;;2.80;1.38;;;22.20;28.30;;;;;;4953289;29;20416;-75
2022/03/10 05:20:09;;;;;;;3.23;1.40;;;22.20;27.70;;;;;;4953411;29;20510;-77
2022/03/10 05:22:46;;;;;;;2.55;1.70;;;22.20;27.70;;;;;;4936457;29;20837;-77
2022/03/10 05:25:13;;;;;;;3.42;1.50;;;22.20;27.40;;;;;;4936298;29;20485;-78
2022/03/10 05:27:38;;;;;;;1.98;1.27;;;22.30;27.50;;;;;;4953587;29;20409;-74
2022/03/10 05:30:05;;;;;;;2.40;1.30;;;22.20;27.30;;;;;;4953533;29;20457;-74
2022/03/10 05:32:31;;;;;;;2.25;1.40;;;22.30;27.20;;;;;;4953329;29;20430;-77
2022/03/10 05:34:57;;;;;;;2.33;1.30;;;22.30;27.10;;;;;;4953503;29;20425;-74
2022/03/10 05:37:24;;;;;;;2.67;1.38;;;22.30;27.00;;;;;;4936239;29;20405;-76
2022/03/10 05:39:50;;;;;;;3.05;1.40;;;22.30;26.90;;;;;;4952906;29;20428;-76
2022/03/10 05:42:16;;;;;;;3.30;1.50;;;22.20;27.00;;;;;;4935844;29;20426;-74
2022/03/10 05:44:42;;;;;;;4.43;1.33;;;22.10;27.20;;;;;;4935907;29;20425;-73
2022/03/10 05:47:09;;;;;;;2.95;1.40;;;22.10;27.50;;;;;;4953298;29;20406;-72
2022/03/10 05:49:35;;;;;;;2.40;1.45;;;22.10;27.90;;;;;;4953171;29;20445;-74
2022/03/10 05:52:01;;;;;;;3.72;1.30;;;22.10;28.30;;;;;;4952602;29;20433;-73
2022/03/10 05:54:27;;;;;;;2.90;1.30;;;22.10;28.30;;;;;;4935935;29;20404;-73
2022/03/10 05:56:52;;;;;;;2.30;1.40;;;22.10;28.20;;;;;;4936045;29;20414;-74
2022/03/10 05:59:19;;;;;;;3.53;1.30;;;22.10;27.50;;;;;;4935917;29;20501;-75
2022/03/10 06:01:49;;;;;;;3.63;1.60;;;22.10;27.50;;;;;;4935583;29;20911;-73
2022/03/10 06:04:15;;;;;;;4.45;1.25;;;22.20;27.40;;;;;;4953065;29;20425;-74
2022/03/10 06:06:43;;;;;;;4.25;1.38;;;22.20;27.20;;;;;;4953129;29;20402;-73
2022/03/10 06:09:09;;;;;;;4.75;1.50;;;22.10;27.50;;;;;;4935842;29;20394;-75
2022/03/10 06:11:35;;;;;;;6.23;1.30;;;22.10;27.80;;;;;;4935889;29;20666;-75
2022/03/10 06:14:01;;;;;;;3.65;1.40;;;22.00;27.70;;;;;;4935539;29;20990;-75
2022/03/10 06:16:27;;;;;;;3.88;1.27;;;22.00;27.70;;;;;;4935764;29;20432;-75
2022/03/10 06:18:53;;;;;;;3.57;1.47;;;22.00;27.80;;;;;;4935634;29;20470;-74
2022/03/10 06:21:18;;;;;;;2.95;1.35;;;22.00;27.80;;;;;;4952906;29;20398;-75
2022/03/10 06:23:44;;;;;;;2.10;1.40;;;22.00;27.80;;;;;;4952828;29;20781;-73
2022/03/10 06:26:09;;;;;;;2.60;1.30;;;22.00;28.00;;;;;;4952935;29;20402;-75
2022/03/10 06:28:35;;;;;;;3.20;1.30;;;21.90;27.90;;;;;;4935803;29;20761;-74
2022/03/10 06:31:01;;;;;;;2.83;1.55;;;21.90;27.90;;;;;;4952888;29;20459;-74
2022/03/10 06:33:27;;;;;;;2.60;1.13;;;21.90;27.90;;;;;;4953068;29;20414;-74
2022/03/10 06:35:53;;;;;;;2.07;1.30;;;21.90;28.40;;;;;;4952542;29;20448;-74
2022/03/10 06:38:19;;;;;;;3.20;1.30;;;21.90;27.90;;;;;;4953017;29;20402;-75
2022/03/10 06:40:44;;;;;;;3.90;1.40;;;21.90;27.90;;;;;;4952953;29;20453;-74
2022/03/10 06:43:10;;;;;;;3.00;1.10;;;21.90;27.90;;;;;;4953122;29;20437;-74
2022/03/10 06:45:36;;;;;;;3.05;1.35;;;21.90;27.80;;;;;;4952830;29;20401;-74
2022/03/10 06:48:02;;;;;;;3.22;1.30;;;21.90;27.80;;;;;;4935314;29;20453;-75
2022/03/10 06:50:28;;;;;;;3.20;1.23;;;21.90;27.80;;;;;;4952983;29;20422;-75
2022/03/10 06:52:56;;;;;;;3.15;1.30;;;21.90;27.80;;;;;;4952935;28;20418;-73
2022/03/10 06:55:23;;;;;;;1.92;1.20;;;22.00;27.90;;;;;;4939091;29;20409;-74
2022/03/10 06:57:50;;;;;;;2.22;1.25;;;21.90;27.80;;;;;;4955845;29;20402;-73
2022/03/10 07:00:15;;;;;;;2.03;1.10;;;21.90;27.70;;;;;;4956129;29;20394;-75
2022/03/10 07:02:41;;;;;;;2.30;1.20;;;22.00;27.80;;;;;;4956102;29;20393;-75
2022/03/10 07:05:08;;;;;;;2.53;1.10;;;22.00;27.60;;;;;;4938953;29;20408;-75
2022/03/10 07:07:34;;;;;;;2.13;1.30;;;22.00;27.60;;;;;;4938822;29;20448;-75
2022/03/10 07:10:00;;;;;;;2.87;1.20;;;22.00;27.60;;;;;;4938297;29;21098;-74
2022/03/10 07:12:29;;;;;;;2.40;1.33;;;22.10;27.60;;;;;;4938693;29;20426;-73
2022/03/10 07:14:55;;;;;;;1.42;1.17;;;22.10;27.50;;;;;;4938564;29;20412;-73
2022/03/10 07:17:21;;;;;;;2.10;1.25;;;22.10;27.50;;;;;;4955886;29;20468;-74
2022/03/10 07:19:46;;;;;;;1.77;1.20;;;22.10;27.50;;;;;;4934680;29;21047;-75
2022/03/10 07:22:18;;;;;;;2.30;1.42;;;22.10;27.50;;;;;;4936343;29;20449;-73
2022/03/10 07:24:43;;;;;;;2.30;1.27;;;22.10;27.40;;;;;;4936605;29;20413;-73
2022/03/10 07:27:09;;;;;;;2.23;1.10;;;22.10;27.40;;;;;;4936520;29;20407;-73
2022/03/10 07:29:35;;;;;;;1.77;1.20;;;22.20;27.40;;;;;;4935222;29;20408;-74
2022/03/10 07:32:01;;;;;;;1.80;1.10;;;22.10;27.40;;;;;;4934787;29;20431;-72
2022/03/10 07:34:27;;;;;;;2.00;1.33;;;22.10;27.40;;;;;;4936390;29;20431;-73
2022/03/10 07:36:53;;;;;;;2.10;1.30;;;22.20;27.40;;;;;;4935043;29;20407;-72
2022/03/10 07:39:19;;;;;;;1.90;1.20;;;22.20;27.30;;;;;;4936291;29;20407;-72
2022/03/10 07:41:44;;;;;;;1.95;1.30;;;22.20;27.30;;;;;;4934742;29;20407;-73
2022/03/10 07:44:10;;;;;;;1.63;1.10;;;22.30;27.40;;;;;;4935987;29;20398;-73
2022/03/10 07:46:36;;;;;;;1.73;1.25;;;22.30;27.40;;;;;;4934848;29;20457;-73
2022/03/10 07:49:02;;;;;;;1.77;1.10;;;22.30;27.30;;;;;;4936328;29;20400;-72
2022/03/10 07:51:28;;;;;;;1.92;1.20;;;22.30;27.30;;;;;;4936108;29;20419;-72
2022/03/10 07:53:53;;;;;;;1.73;1.10;;;22.30;27.30;;;;;;4935580;29;20419;-72
2022/03/10 07:56:19;;;;;;;1.77;1.10;;;22.40;27.30;;;;;;4936156;29;20894;-72
2022/03/10 07:58:45;;;;;;;2.13;1.50;;;22.40;27.30;;;;;;4935978;29;20396;-73
2022/03/10 08:01:11;;;;;;;1.92;1.10;;;22.40;27.30;;;;;;4934570;29;20455;-73
2022/03/10 08:03:38;;;;;;;1.50;1.00;;;22.40;27.20;;;;;;4935738;29;20416;-73
2022/03/10 08:06:04;;;;;;;1.38;1.13;;;22.40;27.20;;;;;;4935305;29;20405;-74
2022/03/10 08:08:30;;;;;;;1.77;1.00;;;22.50;27.20;;;;;;4935823;29;20490;-72
2022/03/10 08:10:56;;;;;;;1.30;1.10;;;22.50;27.10;;;;;;4935650;29;20395;-72
2022/03/10 08:13:26;;;;;;;1.45;1.00;;;22.60;27.10;;;;;;4935888;29;20758;-73
2022/03/10 08:15:53;;;;;;;1.97;1.10;;;22.60;27.00;;;;;;4935412;29;20422;-73
2022/03/10 08:18:19;;;;;;;1.77;1.10;;;22.60;27.00;;;;;;4942161;29;20421;-72
2022/03/10 08:20:45;;;;;;;1.98;1.10;;;22.70;27.00;;;;;;4954724;29;20397;-72
2022/03/10 08:23:11;;;;;;;1.55;1.00;;;22.70;27.00;;;;;;4954711;29;20452;-73
2022/03/10 08:25:36;;;;;;;1.38;0.88;;;22.70;27.00;;;;;;4954723;29;20485;-72
2022/03/10 08:28:07;;;;;;;2.17;1.13;;;22.70;27.00;;;;;;4954128;29;20432;-72
2022/03/10 08:30:32;;;;;;;1.30;0.90;;;22.70;27.00;;;;;;4954545;29;20485;-73
2022/03/10 08:32:58;;;;;;;1.83;1.00;;;22.70;26.90;;;;;;4954278;29;20504;-72
2022/03/10 08:35:24;;;;;;;1.47;0.90;;;22.80;27.00;;;;;;4954534;29;20431;-72
2022/03/10 08:37:50;;;;;;;1.40;0.90;;;22.80;27.50;;;;;;4954089;29;20402;-72
2022/03/10 08:40:19;;;;;;;1.40;1.00;;;22.80;26.70;;;;;;4937025;29;20414;-72
2022/03/10 08:42:46;;;;;;;1.55;1.00;;;22.90;26.90;;;;;;4954247;29;20915;-73
2022/03/10 08:45:13;;;;;;;1.70;1.00;;;22.90;26.60;;;;;;4954350;29;20544;-72
2022/03/10 08:47:39;;;;;;;1.40;1.00;;;23.00;26.60;;;;;;4953931;29;20402;-72
2022/03/10 08:50:06;;;;;;;1.80;0.90;;;23.00;26.60;;;;;;4936634;29;20931;-73
2022/03/10 08:52:32;;;;;;;1.67;0.85;;;23.00;26.80;;;;;;4936872;29;20940;-72
2022/03/10 08:54:58;;;;;;;1.60;1.00;;;23.00;26.80;;;;;;4936741;29;20401;-73
2022/03/10 08:57:24;;;;;;;1.40;0.93;;;23.10;26.80;;;;;;4936809;29;20402;-73
2022/03/10 08:59:51;;;;;;;1.70;1.10;;;23.00;26.80;;;;;;4953779;29;20904;-72
2022/03/10 09:02:17;;;;;;;1.40;1.00;;;23.10;26.80;;;;;;4953766;29;20402;-72
2022/03/10 09:04:43;;;;;;;1.55;1.00;;;23.10;26.80;;;;;;4953899;29;20402;-72
2022/03/10 09:07:09;;;;;;;1.40;0.98;;;23.20;26.80;;;;;;4936742;29;21100;-73
2022/03/10 09:09:35;;;;;;;1.30;1.00;;;23.20;26.60;;;;;;4953865;29;20877;-75
2022/03/10 09:12:01;;;;;;;1.40;0.90;;;23.30;26.60;;;;;;4953228;29;20433;-73
2022/03/10 09:14:26;;;;;;;1.40;1.00;;;23.30;26.60;;;;;;4953933;29;20394;-75
2022/03/10 09:16:52;;;;;;;1.52;1.08;;;23.30;27.10;;;;;;4953265;28;20394;-74
2022/03/10 09:19:18;;;;;;;1.50;0.98;;;23.30;26.50;;;;;;4953608;29;20501;-75
2022/03/10 09:21:44;;;;;;;1.47;1.00;;;23.40;26.60;;;;;;4953670;29;20412;-75
2022/03/10 09:24:10;;;;;;;1.33;0.85;;;23.40;26.50;;;;;;4953276;29;20876;-72
2022/03/10 09:26:37;;;;;;;1.30;1.10;;;23.40;26.40;;;;;;4953705;29;20457;-72
2022/03/10 09:29:04;;;;;;;1.42;1.00;;;23.40;26.50;;;;;;4953553;29;20402;-73
2022/03/10 09:31:30;;;;;;;1.58;1.10;;;23.40;26.40;;;;;;4953520;29;20421;-72
2022/03/10 09:33:55;;;;;;;1.63;1.00;;;23.40;26.30;;;;;;4953383;29;20406;-72
2022/03/10 09:36:21;;;;;;;1.37;0.90;;;23.40;26.40;;;;;;4953311;29;20894;-72
2022/03/10 09:38:47;;;;;;;1.50;1.00;;;23.40;26.30;;;;;;4953473;29;20485;-72
2022/03/10 09:41:13;;;;;;;1.20;0.90;;;23.40;26.40;;;;;;4953560;29;20472;-75
2022/03/10 09:43:39;;;;;;;1.55;0.90;;;23.40;26.40;;;;;;4953578;29;20402;-72
2022/03/10 09:46:08;;;;;;;1.17;0.90;;;23.50;26.40;;;;;;4953008;29;20477;-71
2022/03/10 09:48:35;;;;;;;1.27;0.90;;;23.40;26.30;;;;;;4953490;29;20401;-72
2022/03/10 09:51:01;;;;;;;1.50;1.00;;;23.50;26.40;;;;;;4953303;29;20457;-72
2022/03/10 09:53:30;;;;;;;1.20;0.90;;;23.50;26.40;;;;;;4953448;29;20401;-72
2022/03/10 09:55:56;;;;;;;1.20;0.77;;;23.50;26.40;;;;;;4953144;29;20394;-73
2022/03/10 09:58:22;;;;;;;1.37;0.90;;;23.50;26.30;;;;;;4936085;29;20855;-73
2022/03/10 10:00:48;;;;;;;1.17;0.90;;;23.50;26.20;;;;;;4953234;29;20414;-74
2022/03/10 10:03:14;;;;;;;1.15;0.80;;;23.50;26.10;;;;;;4936129;29;20490;-73
2022/03/10 10:05:40;;;;;;;1.50;0.90;;;23.60;26.20;;;;;;4953199;29;20770;-72
2022/03/10 10:08:10;;;;;;;1.23;0.95;;;23.50;26.10;;;;;;4952897;29;20756;-72
2022/03/10 10:10:50;;;;;;;1.30;0.98;;;23.50;26.20;;;;;;4953269;29;20398;-72
2022/03/10 10:13:35;;;;;;;1.40;0.90;;;23.50;26.20;;;;;;4953335;29;20546;-72
2022/03/10 10:16:08;;;;;;;1.20;0.80;;;23.50;26.30;;;;;;4952617;29;20405;-72
2022/03/10 10:18:36;;;;;;;1.52;0.90;;;23.50;26.30;;;;;;4935861;29;20430;-73
2022/03/10 10:21:04;;;;;;;1.27;0.90;;;23.40;26.30;;;;;;4953068;29;20402;-72
2022/03/10 10:23:32;;;;;;;1.35;0.80;;;23.50;26.40;;;;;;4953219;29;20409;-72
2022/03/10 10:26:12;;;;;;;1.30;0.90;;;23.50;26.30;;;;;;4952872;29;20394;-72
2022/03/10 10:28:40;;;;;;;1.90;0.95;;;23.50;26.30;;;;;;4956080;28;20485;-72
2022/03/10 10:31:12;;;;;;;1.50;1.00;;;23.50;26.30;;;;;;4956654;29;20818;-72
2022/03/10 10:33:41;;;;;;;1.70;0.90;;;23.50;26.20;;;;;;4956709;29;20915;-72
2022/03/10 10:36:24;;;;;;;1.50;1.05;;;23.50;26.20;;;;;;4956378;29;20468;-72
2022/03/10 10:38:53;;;;;;;1.77;1.10;;;23.50;26.20;;;;;;4956572;29;20745;-73
2022/03/10 10:41:27;;;;;;;1.58;1.02;;;23.50;26.10;;;;;;4939397;29;20413;-75
2022/03/10 10:44:00;;;;;;;1.23;0.90;;;23.60;26.10;;;;;;4956252;29;20382;-72
2022/03/10 10:46:30;;;;;;;1.55;1.10;;;23.60;26.10;;;;;;4956512;29;20405;-74
2022/03/10 10:48:57;;;;;;;1.48;0.95;;;23.60;26.10;;;;;;4956374;29;20385;-75
2022/03/10 10:51:33;;;;;;;1.98;1.00;;;23.60;26.00;;;;;;4956321;29;20405;-75
2022/03/10 10:54:00;;;;;;;1.60;1.10;;;23.60;26.10;;;;;;4956297;29;21046;-76
2022/03/10 10:56:29;;;;;;;1.60;1.00;;;23.60;26.10;;;;;;4956395;29;20425;-72
2022/03/10 10:58:55;;;;;;;1.40;0.90;;;23.60;26.20;;;;;;4956168;29;20435;-72
2022/03/10 11:01:26;;;;;;;1.50;0.98;;;23.60;26.10;;;;;;4956263;29;20498;-72
2022/03/10 11:03:52;;;;;;;1.70;1.10;;;23.60;26.10;;;;;;4955877;29;20400;-73
2022/03/10 11:06:20;;;;;;;1.20;0.90;;;23.60;26.10;;;;;;4955691;29;20398;-72
2022/03/10 11:08:45;;;;;;;1.50;1.00;;;23.60;26.00;;;;;;4956001;29;20481;-72
2022/03/10 11:11:12;;;;;;;1.20;1.00;;;23.60;26.00;;;;;;4955984;29;21105;-76
2022/03/10 11:13:38;;;;;;;1.67;1.00;;;23.60;26.00;;;;;;4956002;29;20493;-74
2022/03/10 11:16:07;;;;;;;1.45;1.00;;;23.70;26.00;;;;;;4955491;29;20489;-75
2022/03/10 11:18:33;;;;;;;1.63;1.10;;;23.70;25.90;;;;;;4955816;29;20492;-73
2022/03/10 11:21:27;;;;;;;1.35;1.00;;;23.70;25.80;;;;;;4938749;29;20397;-74
2022/03/10 11:24:10;;;;;;;1.50;1.10;;;23.70;25.80;;;;;;4955872;29;20809;-73
2022/03/10 11:26:45;;;;;;;1.55;1.00;;;23.70;25.80;;;;;;4956085;29;20729;-74
2022/03/10 11:29:19;;;;;;;1.70;1.20;;;23.70;25.90;;;;;;4955722;29;20402;-74
2022/03/10 11:31:45;;;;;;;1.80;1.00;;;23.70;25.80;;;;;;4955643;29;20450;-75
2022/03/10 11:34:31;;;;;;;1.55;1.00;;;23.70;25.80;;;;;;4955232;29;20390;-76
2022/03/10 11:36:56;;;;;;;1.70;1.20;;;23.70;25.70;;;;;;4955360;28;20394;-76
2022/03/10 11:39:23;;;;;;;1.30;1.10;;;23.80;25.90;;;;;;4954898;28;20401;-76
2022/03/10 11:41:53;;;;;;;1.90;1.10;;;23.70;25.70;;;;;;4955452;29;20916;-72
2022/03/10 11:44:20;;;;;;;1.47;1.00;;;23.80;25.80;;;;;;4937844;29;20487;-72
2022/03/10 11:46:57;;;;;;;1.60;1.10;;;23.80;25.80;;;;;;4938030;29;20421;-72
2022/03/10 11:49:27;;;;;;;1.65;1.00;;;23.80;25.80;;;;;;4955383;29;20405;-72
2022/03/10 11:51:56;;;;;;;1.35;1.00;;;23.90;25.90;;;;;;4937902;29;20430;-73
2022/03/10 11:54:30;;;;;;;1.60;1.10;;;23.90;25.80;;;;;;4937846;29;20398;-72
2022/03/10 11:57:00;;;;;;;1.50;1.20;;;23.80;25.80;;;;;;4955179;29;20417;-72
2022/03/10 11:59:31;;;;;;;1.50;1.10;;;23.90;25.80;;;;;;4938032;29;20406;-72
2022/03/10 12:01:59;;;;;;;1.63;1.05;;;23.90;25.80;;;;;;4937613;29;20978;-72
2022/03/10 12:04:38;;;;;;;1.45;1.00;;;23.90;25.80;;;;;;4937935;29;20398;-72
2022/03/10 12:07:05;;;;;;;1.33;1.00;;;23.90;25.90;;;;;;4937798;29;20402;-72
2022/03/10 12:09:39;;;;;;;1.20;0.90;;;23.90;25.80;;;;;;4955063;29;20401;-72
2022/03/10 12:12:16;;;;;;;1.60;1.00;;;23.90;25.80;;;;;;4954406;29;20916;-72
2022/03/10 12:14:42;;;;;;;1.30;1.00;;;23.90;25.90;;;;;;4954882;29;20407;-72
2022/03/10 12:17:45;;;;;;;1.30;0.98;;;23.90;25.90;;;;;;4954845;29;20386;-73
2022/03/10 12:20:21;;;;;;;1.30;0.98;;;23.90;25.80;;;;;;4954282;29;20441;-72
2022/03/10 12:23:10;;;;;;;1.50;1.10;;;24.00;25.80;;;;;;4954718;29;20393;-72
2022/03/10 12:25:50;;;;;;;1.40;1.00;;;24.00;25.80;;;;;;4937520;29;20425;-73
2022/03/10 12:28:35;;;;;;;1.60;1.10;;;24.00;25.90;;;;;;4954275;29;20619;-72
2022/03/10 12:31:24;;;;;;;1.45;1.00;;;24.00;25.80;;;;;;4954542;29;20562;-75
2022/03/10 12:33:57;;;;;;;1.35;0.95;;;24.00;25.80;;;;;;4937292;29;20414;-75
2022/03/10 12:36:34;;;;;;;1.30;1.05;;;24.10;25.80;;;;;;4937084;29;20402;-75
2022/03/10 12:39:07;;;;;;;1.10;0.90;;;24.20;25.80;;;;;;4937208;29;20481;-72
2022/03/10 12:41:36;;;;;;;1.48;1.10;;;24.20;25.70;;;;;;4937465;29;20460;-76
2022/03/10 12:44:06;;;;;;;1.30;0.93;;;24.20;25.70;;;;;;4936964;29;20464;-74
2022/03/10 12:46:33;;;;;;;1.90;1.25;;;24.20;25.60;;;;;;4937095;29;20456;-73
2022/03/10 12:49:04;;;;;;;1.27;0.90;;;24.30;25.60;;;;;;4954297;29;20405;-75
2022/03/10 12:51:33;;;;;;;1.35;1.00;;;24.30;25.60;;;;;;4936068;29;20413;-72
2022/03/10 12:53:59;;;;;;;1.38;1.10;;;24.30;25.60;;;;;;4936895;29;20410;-73